Time;durP1;ratioP1;P1;durP2;ratioP2;P2;SDS_P1;SDS_P2;PMS_P1;PMS_P2;Temp;Humidity;BMP_temperature;BMP_pressure;BME280_temperature;BME280_humidity;BME280_pressure;Samples;Min_cycle;Max_cycle;Signal;HPM_P1;HPM_P2
2022/03/20 00:01:47;;;;;;;21.73;12.20;;;;;;;1.95;100.00;95852.56;4975998;28;20030;-64
2022/03/20 00:04:15;;;;;;;20.08;12.40;;;;;;;1.95;100.00;95837.56;4993878;28;20033;-64
2022/03/20 00:06:41;;;;;;;22.33;12.95;;;;;;;1.94;100.00;95830.59;4975722;28;20437;-64
2022/03/20 00:09:06;;;;;;;21.08;13.40;;;;;;;1.95;100.00;95816.41;4976176;28;20022;-63
2022/03/20 00:11:31;;;;;;;23.17;13.32;;;;;;;1.98;100.00;95810.75;4993742;28;20061;-64
2022/03/20 00:14:00;;;;;;;22.13;13.20;;;;;;;2.02;100.00;95805.88;4993425;28;20018;-64
2022/03/20 00:16:29;;;;;;;22.90;13.95;;;;;;;2.05;100.00;95797.53;4993498;28;20053;-64
2022/03/20 00:18:55;;;;;;;24.67;14.15;;;;;;;2.09;100.00;95801.44;4975902;28;20014;-64
2022/03/20 00:21:21;;;;;;;22.88;13.95;;;;;;;2.11;100.00;95798.63;4993031;28;20026;-64
2022/03/20 00:23:52;;;;;;;21.92;13.63;;;;;;;2.12;100.00;95795.78;4977775;28;20035;-63
2022/03/20 00:26:18;;;;;;;25.75;13.95;;;;;;;2.07;100.00;95792.91;4979102;28;20030;-64
2022/03/20 00:28:44;;;;;;;23.67;14.05;;;;;;;2.05;100.00;95784.34;4979055;28;20497;-63
2022/03/20 00:31:13;;;;;;;24.33;13.50;;;;;;;2.03;100.00;95794.28;4996710;28;20110;-64
2022/03/20 00:33:38;;;;;;;24.42;13.98;;;;;;;2.04;100.00;95783.53;4996305;28;20030;-64
2022/03/20 00:36:04;;;;;;;21.70;13.45;;;;;;;2.07;100.00;95784.16;4996335;28;20509;-64
2022/03/20 00:38:29;;;;;;;25.70;14.20;;;;;;;2.10;100.00;95781.13;4995843;28;20049;-64
2022/03/20 00:43:46;;;;;;;24.70;14.85;;;;;;;2.28;100.00;95773.50;4996196;28;20105;-64
2022/03/20 00:46:14;;;;;;;23.33;14.05;;;;;;;2.37;100.00;95780.22;4995934;28;20401;-63
2022/03/20 00:48:43;;;;;;;28.08;15.50;;;;;;;2.46;100.00;95778.25;4995715;28;20029;-64
2022/03/20 00:51:27;;;;;;;23.52;15.43;;;;;;;2.48;100.00;95792.09;4995902;28;20405;-63
2022/03/20 00:53:53;;;;;;;24.02;14.93;;;;;;;2.48;100.00;95795.53;4996062;28;20027;-63
2022/03/20 00:56:18;;;;;;;25.85;15.32;;;;;;;2.42;100.00;95796.34;4995701;28;20041;-62
2022/03/20 00:58:46;;;;;;;26.90;14.50;;;;;;;2.41;100.00;95799.19;4994566;28;20038;-64
2022/03/20 01:01:14;;;;;;;27.13;14.70;;;;;;;2.37;100.00;95790.00;4995827;28;20617;-64
2022/03/20 01:03:49;;;;;;;27.58;15.98;;;;;;;2.34;100.00;95804.44;4995958;28;20030;-64
2022/03/20 01:06:14;;;;;;;27.10;14.75;;;;;;;2.31;100.00;95812.75;4996222;28;20029;-64
2022/03/20 01:08:43;;;;;;;25.67;14.80;;;;;;;2.22;100.00;95811.28;4995933;28;20101;-64
2022/03/20 01:11:09;;;;;;;22.48;14.10;;;;;;;2.15;100.00;95816.50;4995819;28;20033;-64
2022/03/20 01:13:35;;;;;;;25.75;15.52;;;;;;;2.11;100.00;95804.72;4995945;28;20399;-64
2022/03/20 01:16:01;;;;;;;26.35;14.75;;;;;;;2.11;100.00;95804.72;4995560;28;20026;-64
2022/03/20 01:18:32;;;;;;;25.20;15.05;;;;;;;2.03;100.00;95807.50;4995913;28;20528;-64
2022/03/20 01:21:01;;;;;;;27.48;15.18;;;;;;;1.97;100.00;95800.38;4995518;28;20055;-64
2022/03/20 01:23:30;;;;;;;27.95;14.93;;;;;;;1.87;100.00;95802.53;4978108;28;20041;-64
2022/03/20 01:25:55;;;;;;;28.08;15.35;;;;;;;1.75;100.00;95810.19;4995352;28;20084;-64
2022/03/20 01:28:24;;;;;;;25.75;15.30;;;;;;;1.59;100.00;95811.25;4977879;28;20030;-64
2022/03/20 01:30:49;;;;;;;25.92;15.13;;;;;;;1.44;100.00;95810.53;4995350;28;20454;-64
2022/03/20 01:33:16;;;;;;;25.63;14.95;;;;;;;1.27;100.00;95795.94;4995206;28;20049;-64
2022/03/20 01:35:42;;;;;;;22.08;12.73;;;;;;;1.09;100.00;95783.22;4993812;28;20046;-63
2022/03/20 01:38:08;;;;;;;29.00;14.30;;;;;;;0.91;100.00;95772.28;4990307;28;20509;-64
2022/03/20 01:40:42;;;;;;;23.55;14.65;;;;;;;0.72;100.00;95765.78;4975559;28;20466;-64
2022/03/20 01:43:11;;;;;;;25.27;14.80;;;;;;;0.57;100.00;95758.75;4974643;28;20163;-64
2022/03/20 01:45:42;;;;;;;24.45;14.98;;;;;;;0.49;100.00;95739.59;4975336;28;20030;-64
2022/03/20 01:48:14;;;;;;;23.90;14.45;;;;;;;0.42;100.00;95739.50;4956181;28;20019;-64
2022/03/20 01:50:43;;;;;;;25.67;13.93;;;;;;;0.27;100.00;95736.09;4957751;28;20034;-62
2022/03/20 01:53:11;;;;;;;24.23;13.30;;;;;;;0.13;100.00;95736.97;4975126;28;20030;-64
2022/03/20 01:55:36;;;;;;;23.27;13.73;;;;;;;-0.07;100.00;95739.31;4973894;28;20509;-64
2022/03/20 01:58:02;;;;;;;23.75;13.93;;;;;;;-0.22;100.00;95736.69;4957734;28;20026;-63
2022/03/20 02:00:28;;;;;;;24.50;13.93;;;;;;;-0.39;100.00;95738.69;4975068;28;20030;-63
2022/03/20 02:02:57;;;;;;;25.95;14.65;;;;;;;-0.49;100.00;95740.78;4974766;28;20397;-64
2022/03/20 02:05:31;;;;;;;23.75;13.90;;;;;;;-0.60;100.00;95747.28;4973335;28;20042;-64
2022/03/20 02:07:57;;;;;;;24.83;14.23;;;;;;;-144.43;100.00;64487.81;4974783;28;20058;-64
2022/03/20 02:10:23;;;;;;;24.90;13.98;;;;;;;-144.43;100.00;64487.81;4957265;28;20019;-64
2022/03/20 02:12:51;;;;;;;26.35;14.80;;;;;;;-144.43;100.00;64487.81;4974482;28;20027;-64
2022/03/20 02:15:16;;;;;;;24.35;14.35;;;;;;;-144.43;100.00;64487.81;4974527;28;20031;-63
2022/03/20 02:17:43;;;;;;;25.45;14.60;;;;;;;-144.43;100.00;64487.81;4974295;28;20030;-64
2022/03/20 02:20:12;;;;;;;22.27;13.98;;;;;;;-144.43;100.00;64487.81;4974229;28;20026;-63
2022/03/20 02:22:56;;;;;;;26.00;14.68;;;;;;;-144.43;100.00;64487.81;4974322;28;20026;-62
2022/03/20 02:25:22;;;;;;;25.10;13.70;;;;;;;-144.43;100.00;64487.81;4956934;28;20442;-64
2022/03/20 02:27:47;;;;;;;24.75;14.35;;;;;;;-144.43;100.00;64487.81;4956916;28;20107;-62
2022/03/20 02:30:18;;;;;;;26.75;14.63;;;;;;;-144.43;100.00;64487.81;4974201;28;20118;-63
2022/03/20 02:32:47;;;;;;;27.65;15.50;;;;;;;-144.43;100.00;64487.81;4974133;28;20031;-63
2022/03/20 02:35:15;;;;;;;26.48;15.55;;;;;;;-144.43;100.00;64487.81;4975233;28;20034;-64
2022/03/20 02:37:43;;;;;;;28.50;16.05;;;;;;;-144.43;100.00;64487.81;5002541;28;20038;-63
2022/03/20 02:40:17;;;;;;;27.80;15.45;;;;;;;-144.43;100.00;64487.81;4993570;28;20497;-63
2022/03/20 02:42:45;;;;;;;26.00;14.88;;;;;;;-144.43;100.00;64487.81;4991365;28;20040;-63
2022/03/20 02:45:22;;;;;;;26.13;16.05;;;;;;;-144.43;100.00;64487.81;4991763;28;20030;-65
2022/03/20 02:47:59;;;;;;;29.77;16.17;;;;;;;-144.43;100.00;64487.81;4992276;28;20022;-65
2022/03/20 02:50:39;;;;;;;30.27;16.17;;;;;;;-144.43;100.00;64487.81;4992347;28;20120;-64
2022/03/20 02:53:11;;;;;;;28.13;16.45;;;;;;;-144.43;100.00;64487.81;4982179;28;20432;-65
2022/03/20 02:55:39;;;;;;;28.13;16.27;;;;;;;-144.43;100.00;64487.81;4991158;28;20041;-64
2022/03/20 02:58:09;;;;;;;35.17;17.35;;;;;;;-144.43;100.00;64487.81;4992287;28;20026;-63
2022/03/20 03:00:37;;;;;;;28.10;16.17;;;;;;;-144.43;100.00;64487.81;4992222;28;20026;-65
2022/03/20 03:03:04;;;;;;;28.05;15.43;;;;;;;-144.43;100.00;64487.81;4992368;28;20514;-63
2022/03/20 03:05:35;;;;;;;25.42;15.00;;;;;;;-144.43;100.00;64487.81;4991965;28;20437;-65
2022/03/20 03:10:56;;;;;;;24.73;15.35;;;;;;;-144.43;100.00;64487.81;4992541;28;20049;-65
2022/03/20 03:13:24;;;;;;;26.63;14.95;;;;;;;-144.43;100.00;64487.81;4992191;28;20758;-65
2022/03/20 03:15:54;;;;;;;26.08;15.98;;;;;;;-144.43;100.00;64487.81;4991776;28;20033;-64
2022/03/20 03:18:21;;;;;;;25.02;14.80;;;;;;;-144.43;100.00;64487.81;4974390;28;20026;-64
2022/03/20 03:20:47;;;;;;;26.88;15.30;;;;;;;-144.43;100.00;64487.81;4974806;28;20033;-65
2022/03/20 03:23:28;;;;;;;31.80;14.85;;;;;;;-144.43;100.00;64487.81;4992018;28;20030;-65
2022/03/20 03:25:57;;;;;;;26.83;15.88;;;;;;;-144.43;100.00;64487.81;4991719;28;20081;-65
2022/03/20 03:28:33;;;;;;;27.50;15.55;;;;;;;-144.43;100.00;64487.81;4991887;28;20117;-58
2022/03/20 03:31:00;;;;;;;25.92;15.00;;;;;;;-144.43;100.00;64487.81;4975869;28;20049;-60
2022/03/20 03:33:34;;;;;;;26.80;15.07;;;;;;;-144.43;100.00;64487.81;4992135;28;20406;-59
2022/03/20 03:36:02;;;;;;;26.88;14.68;;;;;;;-144.43;100.00;64487.81;4991862;28;20022;-57
2022/03/20 03:38:31;;;;;;;28.55;16.42;;;;;;;-144.43;100.00;64487.81;4971043;28;20537;-58
2022/03/20 03:40:57;;;;;;;25.85;14.82;;;;;;;-144.43;100.00;64487.81;4972518;28;20504;-57
2022/03/20 03:43:23;;;;;;;27.52;15.45;;;;;;;-144.43;100.00;64487.81;4970984;28;20486;-62
2022/03/20 03:45:58;;;;;;;27.90;15.38;;;;;;;-144.43;100.00;64487.81;4972042;28;20026;-62
2022/03/20 03:48:25;;;;;;;28.25;16.17;;;;;;;-144.43;100.00;64487.81;4972378;28;20023;-62
2022/03/20 03:50:53;;;;;;;26.90;15.25;;;;;;;-144.43;100.00;64487.81;4972263;28;20027;-61
2022/03/20 03:53:19;;;;;;;27.75;16.00;;;;;;;-144.43;100.00;64487.81;4972363;28;20034;-62
2022/03/20 03:55:47;;;;;;;28.30;15.45;;;;;;;-144.43;100.00;64487.81;4971745;28;20027;-62
2022/03/20 03:58:16;;;;;;;26.20;15.40;;;;;;;-144.43;100.00;64487.81;4974918;28;20137;-62
2022/03/20 04:00:43;;;;;;;28.02;15.10;;;;;;;-144.43;100.00;64487.81;4975937;28;20393;-61
2022/03/20 04:03:14;;;;;;;30.40;17.15;;;;;;;-144.43;100.00;64487.81;4975790;28;20359;-61
2022/03/20 04:05:49;;;;;;;28.42;15.90;;;;;;;-144.43;100.00;64487.81;4975546;28;20110;-62
2022/03/20 04:08:16;;;;;;;27.83;16.17;;;;;;;-144.43;100.00;64487.81;4974456;28;20538;-61
2022/03/20 04:10:41;;;;;;;26.30;15.25;;;;;;;-144.43;100.00;64487.81;4988176;28;20038;-62
2022/03/20 04:13:08;;;;;;;28.27;15.82;;;;;;;-144.43;100.00;64487.81;4975833;28;20038;-61
2022/03/20 04:15:36;;;;;;;25.33;15.65;;;;;;;-144.43;100.00;64487.81;4975340;28;20031;-61
2022/03/20 04:18:08;;;;;;;31.55;16.13;;;;;;;-144.43;100.00;64487.81;4975799;28;20588;-62
2022/03/20 04:20:37;;;;;;;28.67;15.45;;;;;;;-144.43;100.00;64487.81;4975790;28;20046;-62
2022/03/20 04:25:47;;;;;;;28.55;16.55;;;;;;;-144.43;100.00;64487.81;4975275;28;20042;-61
2022/03/20 04:28:19;;;;;;;30.27;16.65;;;;;;;-144.43;100.00;64487.81;4975262;28;20451;-61
2022/03/20 04:30:52;;;;;;;20.23;11.80;;;;;;;-144.43;100.00;64487.81;4975554;28;20039;-60
2022/03/20 04:33:17;;;;;;;27.73;16.00;;;;;;;-144.43;100.00;64487.81;4975267;28;20122;-62
2022/03/20 04:35:44;;;;;;;27.92;15.45;;;;;;;-144.43;100.00;64487.81;4974916;28;20549;-59
2022/03/20 04:38:26;;;;;;;29.85;15.55;;;;;;;-144.43;100.00;64487.81;4988580;28;20413;-57
2022/03/20 04:40:54;;;;;;;28.90;15.57;;;;;;;-144.43;100.00;64487.81;4994641;28;20034;-58
2022/03/20 04:43:22;;;;;;;25.45;15.35;;;;;;;-144.43;100.00;64487.81;4994605;28;20030;-58
2022/03/20 04:45:47;;;;;;;29.95;16.05;;;;;;;-144.43;100.00;64487.81;4994391;28;20069;-57
2022/03/20 04:59:22;;;;;;;26.88;15.57;;;;;;;-144.43;100.00;64487.81;4994366;28;20487;-57
2022/03/20 05:01:50;;;;;;;29.95;15.25;;;;;;;-0.90;100.00;95896.31;4994253;28;20496;-58
2022/03/20 05:04:16;;;;;;;29.08;15.65;;;;;;;-0.87;100.00;95913.53;4993954;28;20022;-58
2022/03/20 05:06:44;;;;;;;30.58;16.73;;;;;;;-0.89;100.00;95924.22;4994058;28;20057;-57
2022/03/20 05:14:44;;;;;;;33.50;17.08;;;;;;;-0.70;100.00;95944.03;4993822;28;20037;-58
2022/03/20 05:17:10;;;;;;;31.67;16.85;;;;;;;-0.55;100.00;95951.16;4993954;28;20080;-60
2022/03/20 05:19:40;;;;;;;29.17;16.42;;;;;;;-0.41;100.00;95955.69;4993932;28;20058;-59
2022/03/20 05:22:10;;;;;;;30.35;17.85;;;;;;;-0.32;100.00;95957.28;4976552;28;20390;-60
2022/03/20 05:24:37;;;;;;;29.10;16.45;;;;;;;-0.28;100.00;95961.19;4993686;28;20045;-63
2022/03/20 05:27:03;;;;;;;31.30;17.42;;;;;;;-0.28;100.00;95965.63;4976585;28;20026;-62
2022/03/20 05:29:31;;;;;;;28.92;16.98;;;;;;;-0.13;100.00;95959.41;4993786;28;20389;-61
2022/03/20 05:32:04;;;;;;;32.92;18.55;;;;;;;0.06;100.00;95976.53;4976409;28;20041;-61
2022/03/20 05:34:37;;;;;;;;;;;;;;;0.17;100.00;95977.94;4960587;28;20490;-62
2022/03/20 05:39:33;;;;;;;39.45;19.40;;;;;;;0.31;100.00;95979.78;5049064;28;20060;-63
2022/03/20 05:41:58;;;;;;;34.63;18.10;;;;;;;0.39;100.00;95984.97;5052688;28;20064;-63
2022/03/20 05:44:26;;;;;;;35.25;20.05;;;;;;;0.46;100.00;95970.09;5035818;28;20056;-63
2022/03/20 05:47:01;;;;;;;35.67;19.00;;;;;;;0.55;100.00;95966.38;5053565;28;20025;-61
2022/03/20 05:49:29;;;;;;;31.05;18.25;;;;;;;0.58;100.00;95963.38;5053416;28;20025;-61
2022/03/20 05:51:59;;;;;;;36.17;18.33;;;;;;;0.61;100.00;95959.53;5053421;28;20100;-63
2022/03/20 05:54:24;;;;;;;30.80;18.25;;;;;;;0.65;100.00;95960.00;5053801;28;20087;-63
2022/03/20 05:59:37;;;;;;;33.13;18.23;;;;;;;0.66;100.00;95970.38;5053263;28;20039;-63
2022/03/20 06:02:03;;;;;;;35.55;18.83;;;;;;;0.64;100.00;95963.63;5053181;28;20028;-63
2022/03/20 06:04:30;;;;;;;35.67;19.63;;;;;;;0.60;100.00;95968.44;5053188;28;20395;-63
2022/03/20 06:06:57;;;;;;;34.15;18.20;;;;;;;0.59;100.00;95966.81;5025596;28;20511;-63
2022/03/20 06:09:25;;;;;;;34.75;18.90;;;;;;;0.56;100.00;95965.38;5033120;28;20030;-63
2022/03/20 06:11:51;;;;;;;34.22;18.67;;;;;;;0.53;100.00;95967.53;5039096;28;20056;-63
2022/03/20 06:14:17;;;;;;;32.25;18.70;;;;;;;0.51;100.00;95954.53;5052953;28;20029;-64
2022/03/20 06:16:51;;;;;;;33.08;17.85;;;;;;;0.52;100.00;95963.25;5052936;28;20387;-63
2022/03/20 06:19:17;;;;;;;30.08;17.83;;;;;;;0.53;100.00;95973.63;5001697;28;20036;-60
2022/03/20 06:21:48;;;;;;;32.50;18.60;;;;;;;0.51;100.00;95972.97;5026586;28;20396;-61
2022/03/20 06:24:14;;;;;;;29.98;17.67;;;;;;;0.45;100.00;95972.91;5052761;28;20072;-62
2022/03/20 06:26:42;;;;;;;33.92;17.98;;;;;;;0.38;100.00;95985.16;5052828;28;20557;-61
2022/03/20 06:29:08;;;;;;;32.40;18.17;;;;;;;0.32;100.00;95991.13;5052550;28;20028;-63
2022/03/20 06:31:34;;;;;;;32.47;17.00;;;;;;;0.27;100.00;95996.94;5052723;28;20024;-63
2022/03/20 06:34:00;;;;;;;33.40;16.85;;;;;;;0.22;100.00;95986.97;5052571;28;20495;-64
2022/03/20 06:36:26;;;;;;;27.17;17.05;;;;;;;0.20;100.00;95994.19;5052611;28;20095;-63
2022/03/20 06:38:52;;;;;;;33.13;18.25;;;;;;;0.23;100.00;95988.59;5052153;28;20491;-64
2022/03/20 06:41:18;;;;;;;32.92;18.60;;;;;;;0.29;100.00;95997.56;5040445;28;20083;-65
2022/03/20 06:43:44;;;;;;;29.83;17.55;;;;;;;0.41;100.00;95997.97;4992948;28;20103;-63
2022/03/20 06:46:12;;;;;;;29.52;17.80;;;;;;;0.55;100.00;95999.81;5045098;28;20029;-63
2022/03/20 06:48:38;;;;;;;31.70;17.65;;;;;;;0.71;100.00;95994.38;5032283;28;20021;-63
2022/03/20 06:51:05;;;;;;;30.23;17.55;;;;;;;0.85;100.00;95998.00;5019552;28;20099;-63
2022/03/20 06:53:31;;;;;;;27.05;17.30;;;;;;;1.03;100.00;95992.38;5033310;28;20431;-64
2022/03/20 06:55:56;;;;;;;30.60;17.63;;;;;;;1.22;100.00;95991.00;5044382;28;20041;-63
2022/03/20 06:58:23;;;;;;;28.25;16.80;;;;;;;1.49;100.00;95986.81;5032160;28;20083;-63
2022/03/20 07:00:48;;;;;;;30.60;17.65;;;;;;;1.78;100.00;95989.38;5032357;28;20033;-62
2022/03/20 07:03:15;;;;;;;30.45;17.23;;;;;;;2.08;100.00;95989.28;5032215;28;20439;-64
2022/03/20 07:05:44;;;;;;;30.95;17.90;;;;;;;2.36;100.00;95976.88;5032196;28;20129;-63
2022/03/20 07:08:09;;;;;;;27.95;16.95;;;;;;;2.67;100.00;95967.75;5031944;28;20468;-63
2022/03/20 07:10:36;;;;;;;32.80;17.42;;;;;;;2.97;100.00;95963.03;5018992;28;20036;-64
2022/03/20 07:15:49;;;;;;;28.50;17.83;;;;;;;3.61;100.00;95944.97;5031944;28;20040;-64
2022/03/20 07:18:19;;;;;;;30.20;19.10;;;;;;;3.94;100.00;95937.06;5031891;28;20029;-64
2022/03/20 07:20:51;;;;;;;33.67;19.17;;;;;;;4.28;100.00;95917.50;5031918;28;20100;-64
2022/03/20 07:23:16;;;;;;;28.00;17.30;;;;;;;4.61;100.00;95906.03;5032020;28;20036;-63
2022/03/20 07:31:19;;;;;;;26.25;13.90;;;;;;;5.88;100.00;95899.16;5036388;28;20092;-63
2022/03/20 07:33:49;;;;;;;22.33;12.73;;;;;;;6.28;100.00;95924.41;5019462;28;20488;-63
2022/03/20 07:36:15;;;;;;;25.90;14.13;;;;;;;6.70;100.00;95956.63;5048210;28;20025;-62
2022/03/20 07:38:40;;;;;;;26.35;13.68;;;;;;;7.08;100.00;96004.41;5045433;28;20048;-63
2022/03/20 07:41:09;;;;;;;24.90;12.23;;;;;;;7.33;100.00;96086.16;5053270;28;20048;-63
2022/03/20 07:43:34;;;;;;;22.73;12.82;;;;;;;7.60;100.00;96148.00;5039229;28;20076;-61
2022/03/20 07:46:00;;;;;;;20.98;13.65;;;;;;;7.66;100.00;96219.94;5047618;28;20033;-63
2022/03/20 07:48:28;;;;;;;20.27;12.20;;;;;;;7.74;100.00;96283.69;5039257;28;20487;-62
2022/03/20 07:50:53;;;;;;;20.50;12.35;;;;;;;7.65;100.00;96332.97;5026151;28;20060;-63
2022/03/20 07:53:19;;;;;;;18.50;12.40;;;;;;;7.79;100.00;96347.03;5044011;28;20422;-59
2022/03/20 07:55:46;;;;;;;21.50;12.63;;;;;;;8.05;100.00;96368.19;5052096;28;20025;-61
2022/03/20 07:58:12;;;;;;;20.58;12.50;;;;;;;8.22;100.00;96389.81;5055319;28;20025;-61
2022/03/20 08:00:39;;;;;;;17.92;11.70;;;;;;;8.41;100.00;96423.56;5034819;28;20033;-60
2022/03/20 08:03:05;;;;;;;18.17;11.90;;;;;;;8.62;100.00;96440.25;5035470;28;20032;-61
2022/03/20 08:05:33;;;;;;;22.67;12.98;;;;;;;8.75;100.00;96464.16;5040105;28;20020;-60
2022/03/20 08:08:02;;;;;;;18.58;11.88;;;;;;;9.10;100.00;96485.00;5054988;28;20419;-61
2022/03/20 08:10:31;;;;;;;15.57;10.75;;;;;;;9.34;100.00;96510.88;5054505;28;20027;-61
2022/03/20 08:12:56;;;;;;;16.70;11.45;;;;;;;9.57;100.00;96534.28;5027033;28;20032;-60
2022/03/20 08:15:25;;;;;;;20.63;12.00;;;;;;;9.61;99.52;96548.84;5046504;28;20021;-61
2022/03/20 08:17:53;;;;;;;16.50;11.43;;;;;;;9.85;98.93;96555.16;5025635;28;20461;-60
2022/03/20 08:20:19;;;;;;;20.65;11.70;;;;;;;9.98;98.10;96573.72;5029480;28;20463;-61
2022/03/20 08:22:48;;;;;;;20.38;12.35;;;;;;;10.15;98.25;96576.63;5037114;28;20116;-61
2022/03/20 08:25:19;;;;;;;18.50;12.25;;;;;;;10.47;97.21;96590.66;5054912;28;20025;-59
2022/03/20 08:27:49;;;;;;;16.60;11.75;;;;;;;10.73;96.03;96600.16;5037073;28;20033;-60
2022/03/20 08:30:17;;;;;;;19.38;11.63;;;;;;;10.93;94.37;96614.09;5054981;28;20025;-58
2022/03/20 08:32:43;;;;;;;21.95;12.43;;;;;;;11.06;90.83;96622.97;5050262;28;20032;-61
2022/03/20 08:35:14;;;;;;;16.45;11.57;;;;;;;11.13;89.53;96634.41;5023147;28;20071;-59
2022/03/20 08:37:43;;;;;;;18.50;11.52;;;;;;;11.23;88.52;96637.34;5020664;28;20140;-61
2022/03/20 08:40:15;;;;;;;19.27;10.98;;;;;;;11.44;86.89;96642.16;5023355;28;20516;-61
2022/03/20 08:42:49;;;;;;;20.05;11.55;;;;;;;11.69;85.79;96650.00;5040960;28;20109;-61
2022/03/20 08:45:16;;;;;;;22.33;11.73;;;;;;;11.85;82.79;96667.31;5019965;28;20024;-61
2022/03/20 08:47:43;;;;;;;17.48;11.60;;;;;;;11.86;80.59;96671.63;5038941;28;20056;-61
2022/03/20 08:50:10;;;;;;;19.30;11.35;;;;;;;12.12;81.71;96673.00;5051925;28;20021;-62
2022/03/20 08:52:35;;;;;;;17.60;10.95;;;;;;;12.34;81.13;96676.69;5016242;28;20024;-61
2022/03/20 08:55:09;;;;;;;17.92;11.07;;;;;;;12.49;79.10;96686.97;5052545;28;20025;-62
2022/03/20 08:57:36;;;;;;;18.63;11.02;;;;;;;12.42;76.18;96691.66;5049367;28;20031;-62
2022/03/20 09:00:03;;;;;;;16.95;11.18;;;;;;;12.64;75.12;96694.53;5051860;28;20060;-61
2022/03/20 09:02:28;;;;;;;18.88;11.82;;;;;;;12.60;76.91;96696.06;5049864;28;20028;-61
2022/03/20 09:04:56;;;;;;;19.88;12.60;;;;;;;12.77;76.27;96692.34;5054319;28;20464;-61
2022/03/20 09:07:25;;;;;;;16.67;12.20;;;;;;;12.94;75.64;96689.75;5054407;28;20552;-61
2022/03/20 09:09:50;;;;;;;15.18;10.88;;;;;;;13.12;74.55;96690.59;5047881;28;20108;-62
2022/03/20 09:12:15;;;;;;;16.60;12.43;;;;;;;13.27;74.97;96690.91;5049158;28;20535;-62
2022/03/20 09:14:41;;;;;;;17.23;11.50;;;;;;;13.32;73.77;96697.19;5023180;28;20025;-62
2022/03/20 09:19:54;;;;;;;19.05;11.70;;;;;;;13.55;71.99;96695.41;5054055;28;20399;-61
2022/03/20 09:22:20;;;;;;;16.65;11.80;;;;;;;13.79;70.03;96693.38;5036818;28;20024;-62
2022/03/20 09:24:46;;;;;;;17.77;10.80;;;;;;;13.97;67.20;96697.69;5052848;28;20036;-62
2022/03/20 09:27:11;;;;;;;18.15;11.75;;;;;;;14.11;66.16;96699.81;5042141;28;20396;-62
2022/03/20 09:29:36;;;;;;;16.60;10.55;;;;;;;14.32;66.27;96695.47;5046650;28;20553;-60
2022/03/20 09:32:02;;;;;;;16.70;11.25;;;;;;;14.26;64.53;96688.41;5036482;28;20043;-60
2022/03/20 09:34:31;;;;;;;15.98;10.55;;;;;;;14.65;64.94;96693.78;5043572;28;20490;-62
2022/03/20 09:36:56;;;;;;;17.17;10.27;;;;;;;14.92;61.39;96694.66;5029026;28;20442;-62
2022/03/20 09:39:22;;;;;;;18.20;11.30;;;;;;;15.02;61.40;96699.34;5040272;28;20036;-62
2022/03/20 09:41:47;;;;;;;16.65;10.73;;;;;;;15.19;60.64;96694.66;5025099;28;20487;-61
2022/03/20 09:44:15;;;;;;;14.40;9.73;;;;;;;15.43;59.50;96694.38;5043817;28;20038;-62
2022/03/20 09:46:42;;;;;;;15.07;10.07;;;;;;;15.43;57.11;96687.09;5043113;28;20024;-63
2022/03/20 09:49:07;;;;;;;18.63;10.38;;;;;;;15.42;57.33;96687.34;5038905;28;20022;-62
2022/03/20 09:51:34;;;;;;;15.43;10.10;;;;;;;15.22;56.33;96688.78;5023853;28;20729;-62
2022/03/20 09:54:00;;;;;;;15.35;10.80;;;;;;;15.27;56.28;96686.13;5037614;28;20026;-62
2022/03/20 09:56:25;;;;;;;13.75;10.05;;;;;;;15.32;54.50;96680.78;5032777;28;20028;-62
2022/03/20 09:58:54;;;;;;;16.63;10.80;;;;;;;15.38;54.53;96679.75;5021706;28;20021;-62
2022/03/20 10:01:19;;;;;;;16.00;10.18;;;;;;;15.56;55.56;96681.25;5041002;28;20021;-62
2022/03/20 10:04:05;;;;;;;16.02;10.75;;;;;;;15.84;54.80;96682.84;5042379;28;20025;-62
2022/03/20 10:06:36;;;;;;;17.83;10.93;;;;;;;16.23;55.76;96679.88;5033245;28;20030;-61
2022/03/20 10:09:04;;;;;;;16.27;9.70;;;;;;;16.21;50.27;96682.03;5036031;28;20048;-60
2022/03/20 10:11:33;;;;;;;13.27;9.77;;;;;;;16.29;49.44;96678.84;5034558;28;20614;-62
2022/03/20 10:14:09;;;;;;;12.00;8.55;;;;;;;16.35;47.71;96676.97;5028562;28;20025;-61
2022/03/20 10:16:50;;;;;;;16.92;10.02;;;;;;;16.31;47.09;96678.56;5039976;28;20372;-62
2022/03/20 10:19:27;;;;;;;14.52;9.73;;;;;;;16.38;46.33;96677.25;5042084;28;20017;-62
2022/03/20 10:21:54;;;;;;;12.65;8.70;;;;;;;16.47;45.12;96680.25;5042019;28;20032;-61
2022/03/20 10:24:22;;;;;;;13.80;9.63;;;;;;;16.47;45.43;96672.16;5019576;28;20387;-61
2022/03/20 10:27:00;;;;;;;15.95;10.32;;;;;;;16.62;45.16;96680.34;5028029;28;20461;-60
2022/03/20 10:29:29;;;;;;;14.40;9.68;;;;;;;17.00;46.45;96673.75;5030804;28;20021;-61
2022/03/20 10:31:59;;;;;;;12.23;9.00;;;;;;;17.36;43.97;96673.81;5050228;28;20047;-61
2022/03/20 10:34:24;;;;;;;12.77;9.02;;;;;;;17.35;41.85;96661.34;5049476;28;20387;-62
2022/03/20 10:36:51;;;;;;;13.98;9.73;;;;;;;17.23;41.65;96671.63;5036859;28;20022;-63
2022/03/20 10:39:21;;;;;;;12.50;8.43;;;;;;;17.18;41.81;96660.78;5032025;28;20056;-62
2022/03/20 10:41:48;;;;;;;13.40;8.80;;;;;;;17.10;40.45;96667.53;5032334;28;20021;-62
2022/03/20 10:44:16;;;;;;;13.98;9.23;;;;;;;17.02;41.82;96657.22;5032445;28;20033;-62
2022/03/20 10:47:02;;;;;;;10.30;8.27;;;;;;;16.73;41.44;96659.59;5032495;28;20053;-63
2022/03/20 10:49:29;;;;;;;13.98;9.10;;;;;;;17.09;41.62;96661.31;5032598;28;20059;-63
2022/03/20 10:52:13;;;;;;;12.30;8.98;;;;;;;17.44;39.31;96664.34;5032463;28;20071;-63
2022/03/20 10:54:44;;;;;;;12.90;7.97;;;;;;;17.55;39.81;96652.44;5032275;28;20025;-62
2022/03/20 10:57:11;;;;;;;13.07;8.02;;;;;;;17.66;38.45;96656.75;5032390;28;20025;-63
2022/03/20 10:59:38;;;;;;;12.88;9.07;;;;;;;17.80;38.47;96654.34;5032262;28;20079;-63
2022/03/20 11:02:08;;;;;;;14.25;9.35;;;;;;;17.98;38.82;96659.22;5052070;28;20080;-63
2022/03/20 11:04:35;;;;;;;11.55;8.73;;;;;;;17.70;39.78;96649.75;5034858;28;20025;-63
2022/03/20 11:07:07;;;;;;;13.65;8.52;;;;;;;18.08;40.57;96659.19;5030436;28;20025;-63
2022/03/20 11:09:33;;;;;;;16.33;8.57;;;;;;;18.54;41.12;96650.94;5032467;28;20388;-63
2022/03/20 11:12:07;;;;;;;11.30;8.35;;;;;;;18.69;38.62;96656.34;5032248;28;20029;-64
2022/03/20 11:14:35;;;;;;;11.38;8.02;;;;;;;18.65;38.59;96655.25;5032194;28;20033;-64
2022/03/20 11:17:06;;;;;;;12.35;7.60;;;;;;;18.74;37.61;96659.03;5021386;28;20327;-63
2022/03/20 11:19:39;;;;;;;13.98;8.43;;;;;;;18.86;37.62;96655.16;5018478;28;20442;-64
2022/03/20 11:22:10;;;;;;;10.55;8.02;;;;;;;18.78;37.57;96651.16;5052405;28;20021;-63
2022/03/20 11:24:36;;;;;;;12.48;7.88;;;;;;;18.78;35.81;96645.72;5052000;28;20035;-63
2022/03/20 11:27:04;;;;;;;14.50;8.23;;;;;;;18.81;38.74;96650.59;5051977;28;20029;-63
2022/03/20 11:29:31;;;;;;;11.93;8.77;;;;;;;18.63;37.87;96651.19;5051930;28;20051;-63
2022/03/20 11:32:01;;;;;;;13.88;8.82;;;;;;;18.78;38.60;96651.97;5051893;28;20021;-63
2022/03/20 11:34:29;;;;;;;11.75;8.43;;;;;;;18.71;37.19;96650.63;5051998;28;20029;-64
2022/03/20 11:37:09;;;;;;;10.45;8.25;;;;;;;18.80;37.64;96644.34;5051603;28;20082;-64
2022/03/20 11:39:37;;;;;;;11.35;8.63;;;;;;;19.16;38.02;96641.44;5024220;23;20230;-64
2022/03/20 11:42:23;;;;;;;13.18;8.30;;;;;;;19.45;38.12;96632.56;4987871;28;20187;-61
2022/03/20 11:44:54;;;;;;;11.23;8.20;;;;;;;19.69;37.61;96630.75;4987301;28;20408;-65
2022/03/20 11:47:21;;;;;;;14.48;8.23;;;;;;;19.83;37.39;96633.59;4987184;28;20032;-62
2022/03/20 11:50:13;;;;;;;10.70;7.38;;;;;;;19.85;37.17;96626.78;5022661;28;20407;-62
2022/03/20 11:53:02;;;;;;;15.30;8.48;;;;;;;19.53;37.28;96631.91;5024168;28;20083;-62
2022/03/20 11:55:47;;;;;;;12.23;8.20;;;;;;;19.41;37.38;96626.84;5020052;28;20014;-61
2022/03/20 11:58:21;;;;;;;12.25;8.68;;;;;;;19.19;36.43;96623.75;5026852;28;20057;-61
2022/03/20 12:01:13;;;;;;;12.82;8.35;;;;;;;19.24;36.83;96615.59;5030029;28;20025;-63